sensor_id;sensor_type;location;lat;lon;timestamp;pressure;altitude;pressure_sealevel;temperature;humidity
70206;BME280;57593;55.896;37.396;2023-02-25T00:00:23;97502.31;;;0.22;100.00
70206;BME280;57593;55.896;37.396;2023-02-25T00:00:53;97500.50;;;0.22;100.00
70206;BME280;57593;55.896;37.396;2023-02-25T00:01:26;97510.25;;;0.25;100.00
70206;BME280;57593;55.896;37.396;2023-02-25T00:01:57;97499.25;;;0.11;100.00
70206;BME280;57593;55.896;37.396;2023-02-25T00:02:28;97500.03;;;0.29;100.00
70206;BME280;57593;55.896;37.396;2023-02-25T00:02:59;97496.81;;;0.32;100.00
70206;BME280;57593;55.896;37.396;2023-02-25T00:03:29;97500.28;;;0.45;100.00
70206;BME280;57593;55.896;37.396;2023-02-25T00:04:00;97499.09;;;0.42;100.00
70206;BME280;57593;55.896;37.396;2023-02-25T00:04:31;97491.16;;;0.30;100.00
70206;BME280;57593;55.896;37.396;2023-02-25T00:05:02;97487.66;;;0.26;100.00
70206;BME280;57593;55.896;37.396;2023-02-25T00:05:40;97500.63;;;0.34;100.00
70206;BME280;57593;55.896;37.396;2023-02-25T00:06:12;97492.22;;;0.38;100.00
70206;BME280;57593;55.896;37.396;2023-02-25T00:06:43;97503.84;;;0.31;100.00
70206;BME280;57593;55.896;37.396;2023-02-25T00:07:15;97499.53;;;0.35;100.00
70206;BME280;57593;55.896;37.396;2023-02-25T00:07:46;97498.78;;;0.26;100.00
70206;BME280;57593;55.896;37.396;2023-02-25T00:08:16;97490.25;;;0.17;100.00
70206;BME280;57593;55.896;37.396;2023-02-25T00:08:48;97493.72;;;0.39;100.00
70206;BME280;57593;55.896;37.396;2023-02-25T00:09:19;97497.25;;;0.43;100.00
70206;BME280;57593;55.896;37.396;2023-02-25T00:09:50;97495.56;;;0.38;100.00
70206;BME280;57593;55.896;37.396;2023-02-25T00:10:21;97497.44;;;0.38;100.00
70206;BME280;57593;55.896;37.396;2023-02-25T00:10:59;97486.13;;;0.42;100.00
70206;BME280;57593;55.896;37.396;2023-02-25T00:11:30;97486.41;;;0.41;100.00
70206;BME280;57593;55.896;37.396;2023-02-25T00:12:01;97498.34;;;0.33;100.00
70206;BME280;57593;55.896;37.396;2023-02-25T00:12:32;97489.94;;;0.36;100.00
70206;BME280;57593;55.896;37.396;2023-02-25T00:13:05;97483.19;;;0.44;100.00
70206;BME280;57593;55.896;37.396;2023-02-25T00:13:38;97485.94;;;0.39;100.00
70206;BME280;57593;55.896;37.396;2023-02-25T00:14:09;97493.91;;;0.33;100.00
70206;BME280;57593;55.896;37.396;2023-02-25T00:14:40;97493.28;;;0.37;100.00
70206;BME280;57593;55.896;37.396;2023-02-25T00:15:11;97482.72;;;0.42;100.00
70206;BME280;57593;55.896;37.396;2023-02-25T00:15:42;97491.91;;;0.30;100.00
70206;BME280;57593;55.896;37.396;2023-02-25T00:16:13;97483.66;;;0.37;100.00
70206;BME280;57593;55.896;37.396;2023-02-25T00:16:44;97478.16;;;0.39;100.00
70206;BME280;57593;55.896;37.396;2023-02-25T00:17:15;97486.59;;;0.27;100.00
70206;BME280;57593;55.896;37.396;2023-02-25T00:17:45;97489.47;;;0.08;100.00
70206;BME280;57593;55.896;37.396;2023-02-25T00:18:18;97491.31;;;0.33;100.00
70206;BME280;57593;55.896;37.396;2023-02-25T00:18:55;97488.88;;;0.28;100.00
70206;BME280;57593;55.896;37.396;2023-02-25T00:19:27;97487.78;;;0.29;100.00
70206;BME280;57593;55.896;37.396;2023-02-25T00:19:58;97492.69;;;0.22;100.00
70206;BME280;57593;55.896;37.396;2023-02-25T00:20:28;97487.19;;;0.24;100.00
70206;BME280;57593;55.896;37.396;2023-02-25T00:21:02;97482.91;;;0.28;100.00
70206;BME280;57593;55.896;37.396;2023-02-25T00:21:33;97482.16;;;0.27;100.00
70206;BME280;57593;55.896;37.396;2023-02-25T00:22:03;97488.53;;;0.39;100.00
70206;BME280;57593;55.896;37.396;2023-02-25T00:22:35;97488.41;;;0.35;100.00
70206;BME280;57593;55.896;37.396;2023-02-25T00:23:06;97480.59;;;0.44;100.00
70206;BME280;57593;55.896;37.396;2023-02-25T00:23:37;97482.59;;;0.38;100.00
70206;BME280;57593;55.896;37.396;2023-02-25T00:24:08;97487.97;;;0.33;100.00
70206;BME280;57593;55.896;37.396;2023-02-25T00:24:38;97487.66;;;0.34;100.00
70206;BME280;57593;55.896;37.396;2023-02-25T00:25:09;97487.19;;;0.32;100.00
70206;BME280;57593;55.896;37.396;2023-02-25T00:25:39;97477.41;;;0.38;100.00
70206;BME280;57593;55.896;37.396;2023-02-25T00:26:11;97480.31;;;0.37;100.00
70206;BME280;57593;55.896;37.396;2023-02-25T00:26:42;97484.13;;;0.39;100.00
70206;BME280;57593;55.896;37.396;2023-02-25T00:27:13;97482.75;;;0.24;100.00
70206;BME280;57593;55.896;37.396;2023-02-25T00:27:46;97485.38;;;0.33;100.00
70206;BME280;57593;55.896;37.396;2023-02-25T00:28:17;97474.66;;;0.34;100.00
70206;BME280;57593;55.896;37.396;2023-02-25T00:28:48;97473.25;;;0.46;100.00
70206;BME280;57593;55.896;37.396;2023-02-25T00:29:18;97481.22;;;0.41;100.00
70206;BME280;57593;55.896;37.396;2023-02-25T00:29:53;97478.28;;;0.51;100.00
70206;BME280;57593;55.896;37.396;2023-02-25T00:30:24;97471.44;;;0.38;100.00
70206;BME280;57593;55.896;37.396;2023-02-25T00:30:56;97477.13;;;0.22;100.00
70206;BME280;57593;55.896;37.396;2023-02-25T00:31:27;97478.91;;;0.48;100.00
70206;BME280;57593;55.896;37.396;2023-02-25T00:31:57;97474.66;;;0.26;100.00
70206;BME280;57593;55.896;37.396;2023-02-25T00:32:28;97471.28;;;0.43;100.00
70206;BME280;57593;55.896;37.396;2023-02-25T00:32:59;97475.41;;;0.44;100.00
70206;BME280;57593;55.896;37.396;2023-02-25T00:33:29;97476.03;;;0.41;100.00
70206;BME280;57593;55.896;37.396;2023-02-25T00:34:00;97474.63;;;0.43;100.00
70206;BME280;57593;55.896;37.396;2023-02-25T00:34:30;97470.84;;;0.41;100.00
70206;BME280;57593;55.896;37.396;2023-02-25T00:35:02;97471.72;;;0.53;100.00
70206;BME280;57593;55.896;37.396;2023-02-25T00:35:37;97469.69;;;0.59;100.00
70206;BME280;57593;55.896;37.396;2023-02-25T00:36:11;97471.41;;;0.46;100.00
70206;BME280;57593;55.896;37.396;2023-02-25T00:36:42;97473.72;;;0.48;100.00
70206;BME280;57593;55.896;37.396;2023-02-25T00:37:13;97465.16;;;0.47;100.00
70206;BME280;57593;55.896;37.396;2023-02-25T00:37:44;97470.22;;;0.44;100.00
70206;BME280;57593;55.896;37.396;2023-02-25T00:38:15;97466.38;;;0.50;100.00
70206;BME280;57593;55.896;37.396;2023-02-25T00:38:47;97474.00;;;0.46;100.00
70206;BME280;57593;55.896;37.396;2023-02-25T00:39:19;97469.91;;;0.45;100.00
70206;BME280;57593;55.896;37.396;2023-02-25T00:39:50;97470.22;;;0.35;100.00
70206;BME280;57593;55.896;37.396;2023-02-25T00:40:20;97471.91;;;0.40;100.00
70206;BME280;57593;55.896;37.396;2023-02-25T00:40:51;97470.84;;;0.41;100.00
70206;BME280;57593;55.896;37.396;2023-02-25T00:41:25;97462.75;;;0.33;100.00
70206;BME280;57593;55.896;37.396;2023-02-25T00:41:56;97460.91;;;0.34;100.00
70206;BME280;57593;55.896;37.396;2023-02-25T00:42:26;97465.66;;;0.41;100.00
70206;BME280;57593;55.896;37.396;2023-02-25T00:42:57;97465.28;;;0.51;100.00
70206;BME280;57593;55.896;37.396;2023-02-25T00:43:28;97467.72;;;0.56;100.00
70206;BME280;57593;55.896;37.396;2023-02-25T00:44:00;97467.59;;;0.52;100.00
70206;BME280;57593;55.896;37.396;2023-02-25T00:44:31;97467.59;;;0.52;100.00
70206;BME280;57593;55.896;37.396;2023-02-25T00:45:02;97467.28;;;0.54;100.00
70206;BME280;57593;55.896;37.396;2023-02-25T00:45:32;97460.28;;;0.46;100.00
70206;BME280;57593;55.896;37.396;2023-02-25T00:46:04;97470.81;;;0.49;100.00
70206;BME280;57593;55.896;37.396;2023-02-25T00:46:35;97464.09;;;0.48;100.00
70206;BME280;57593;55.896;37.396;2023-02-25T00:47:05;97472.03;;;0.52;100.00
70206;BME280;57593;55.896;37.396;2023-02-25T00:47:37;97471.09;;;0.48;100.00
70206;BME280;57593;55.896;37.396;2023-02-25T00:48:08;97464.41;;;0.47;100.00
70206;BME280;57593;55.896;37.396;2023-02-25T00:48:39;97458.72;;;0.53;100.00
70206;BME280;57593;55.896;37.396;2023-02-25T00:49:11;97463.94;;;0.45;100.00
70206;BME280;57593;55.896;37.396;2023-02-25T00:49:44;97463.44;;;0.60;100.00
70206;BME280;57593;55.896;37.396;2023-02-25T00:50:16;97464.06;;;0.57;100.00
70206;BME280;57593;55.896;37.396;2023-02-25T00:50:47;97465.78;;;0.44;100.00
70206;BME280;57593;55.896;37.396;2023-02-25T00:51:25;97460.53;;;0.53;100.00
70206;BME280;57593;55.896;37.396;2023-02-25T00:51:56;97463.13;;;0.62;100.00
70206;BME280;57593;55.896;37.396;2023-02-25T00:52:27;97460.53;;;0.62;100.00
70206;BME280;57593;55.896;37.396;2023-02-25T00:52:58;97461.91;;;0.59;100.00
70206;BME280;57593;55.896;37.396;2023-02-25T00:53:28;97457.19;;;0.61;100.00
70206;BME280;57593;55.896;37.396;2023-02-25T00:53:59;97456.09;;;0.62;100.00
70206;BME280;57593;55.896;37.396;2023-02-25T00:54:30;97459.84;;;0.35;100.00
70206;BME280;57593;55.896;37.396;2023-02-25T00:55:01;97458.78;;;0.27;100.00
70206;BME280;57593;55.896;37.396;2023-02-25T00:55:34;97457.72;;;0.28;100.00
70206;BME280;57593;55.896;37.396;2023-02-25T00:56:07;97462.59;;;0.30;100.00
70206;BME280;57593;55.896;37.396;2023-02-25T00:56:38;97453.88;;;0.34;100.00
70206;BME280;57593;55.896;37.396;2023-02-25T00:57:08;97459.53;;;0.37;100.00
70206;BME280;57593;55.896;37.396;2023-02-25T00:57:39;97456.00;;;0.41;100.00
70206;BME280;57593;55.896;37.396;2023-02-25T00:58:10;97451.44;;;0.38;100.00
70206;BME280;57593;55.896;37.396;2023-02-25T00:58:45;97452.47;;;0.46;100.00
70206;BME280;57593;55.896;37.396;2023-02-25T00:59:15;97455.09;;;0.37;100.00
70206;BME280;57593;55.896;37.396;2023-02-25T00:59:48;97450.38;;;0.39;100.00
70206;BME280;57593;55.896;37.396;2023-02-25T01:00:19;97460.13;;;0.42;100.00
70206;BME280;57593;55.896;37.396;2023-02-25T01:00:49;97454.78;;;0.39;100.00
70206;BME280;57593;55.896;37.396;2023-02-25T01:01:28;97462.44;;;0.44;100.00
70206;BME280;57593;55.896;37.396;2023-02-25T01:01:59;97459.66;;;0.49;100.00
70206;BME280;57593;55.896;37.396;2023-02-25T01:02:30;97453.09;;;0.43;100.00
70206;BME280;57593;55.896;37.396;2023-02-25T01:03:01;97450.19;;;0.35;100.00
70206;BME280;57593;55.896;37.396;2023-02-25T01:03:32;97446.38;;;0.42;100.00
70206;BME280;57593;55.896;37.396;2023-02-25T01:04:03;97452.66;;;0.41;100.00
70206;BME280;57593;55.896;37.396;2023-02-25T01:04:35;97452.03;;;0.35;100.00
70206;BME280;57593;55.896;37.396;2023-02-25T01:05:06;97452.03;;;0.35;100.00
70206;BME280;57593;55.896;37.396;2023-02-25T01:05:40;97457.53;;;0.42;100.00
70206;BME280;57593;55.896;37.396;2023-02-25T01:06:11;97456.00;;;0.32;100.00
70206;BME280;57593;55.896;37.396;2023-02-25T01:06:42;97454.81;;;0.30;100.00
70206;BME280;57593;55.896;37.396;2023-02-25T01:07:14;97458.31;;;0.34;100.00
70206;BME280;57593;55.896;37.396;2023-02-25T01:07:45;97455.88;;;0.38;100.00
70206;BME280;57593;55.896;37.396;2023-02-25T01:08:17;97457.72;;;0.28;100.00
70206;BME280;57593;55.896;37.396;2023-02-25T01:08:48;97462.25;;;0.49;100.00
70206;BME280;57593;55.896;37.396;2023-02-25T01:09:19;97458.91;;;0.40;100.00
70206;BME280;57593;55.896;37.396;2023-02-25T01:09:54;97454.78;;;0.47;100.00
70206;BME280;57593;55.896;37.396;2023-02-25T01:10:26;97457.94;;;0.53;100.00
70206;BME280;57593;55.896;37.396;2023-02-25T01:10:57;97458.59;;;0.50;100.00
70206;BME280;57593;55.896;37.396;2023-02-25T01:11:31;97450.97;;;0.36;100.00
70206;BME280;57593;55.896;37.396;2023-02-25T01:12:03;97450.97;;;0.36;100.00
70206;BME280;57593;55.896;37.396;2023-02-25T01:12:34;97447.34;;;0.28;100.00
70206;BME280;57593;55.896;37.396;2023-02-25T01:13:05;97460.28;;;0.37;100.00
70206;BME280;57593;55.896;37.396;2023-02-25T01:13:36;97453.28;;;0.38;100.00
70206;BME280;57593;55.896;37.396;2023-02-25T01:14:10;97448.34;;;0.45;100.00
70206;BME280;57593;55.896;37.396;2023-02-25T01:14:41;97447.47;;;0.32;100.00
70206;BME280;57593;55.896;37.396;2023-02-25T01:15:14;97450.94;;;0.45;100.00
70206;BME280;57593;55.896;37.396;2023-02-25T01:15:44;97455.22;;;0.49;100.00
70206;BME280;57593;55.896;37.396;2023-02-25T01:16:18;97445.44;;;0.55;100.00
70206;BME280;57593;55.896;37.396;2023-02-25T01:16:51;97453.66;;;0.66;100.00
70206;BME280;57593;55.896;37.396;2023-02-25T01:17:22;97451.25;;;0.52;100.00
70206;BME280;57593;55.896;37.396;2023-02-25T01:17:53;97448.47;;;0.57;100.00
70206;BME280;57593;55.896;37.396;2023-02-25T01:18:23;97455.03;;;0.54;100.00
70206;BME280;57593;55.896;37.396;2023-02-25T01:18:55;97441.28;;;0.63;100.00
70206;BME280;57593;55.896;37.396;2023-02-25T01:19:27;97449.53;;;0.65;100.00
70206;BME280;57593;55.896;37.396;2023-02-25T01:19:58;97446.47;;;0.63;100.00
70206;BME280;57593;55.896;37.396;2023-02-25T01:20:29;97452.28;;;0.60;100.00
70206;BME280;57593;55.896;37.396;2023-02-25T01:20:59;97441.16;;;0.50;100.00
70206;BME280;57593;55.896;37.396;2023-02-25T01:21:32;97455.81;;;0.55;100.00
70206;BME280;57593;55.896;37.396;2023-02-25T01:22:04;97450.00;;;0.58;100.00
70206;BME280;57593;55.896;37.396;2023-02-25T01:22:35;97444.81;;;0.58;100.00
70206;BME280;57593;55.896;37.396;2023-02-25T01:23:11;97440.06;;;0.60;100.00
70206;BME280;57593;55.896;37.396;2023-02-25T01:23:46;97446.06;;;0.52;100.00
70206;BME280;57593;55.896;37.396;2023-02-25T01:24:23;97440.69;;;0.57;100.00
70206;BME280;57593;55.896;37.396;2023-02-25T01:24:54;97439.88;;;0.65;100.00
70206;BME280;57593;55.896;37.396;2023-02-25T01:25:25;97448.50;;;0.48;100.00
70206;BME280;57593;55.896;37.396;2023-02-25T01:25:56;97445.56;;;0.59;100.00
70206;BME280;57593;55.896;37.396;2023-02-25T01:26:29;97439.94;;;0.48;100.00
70206;BME280;57593;55.896;37.396;2023-02-25T01:27:02;97446.19;;;0.56;100.00
70206;BME280;57593;55.896;37.396;2023-02-25T01:27:33;97449.09;;;0.54;100.00
70206;BME280;57593;55.896;37.396;2023-02-25T01:28:03;97446.31;;;0.59;100.00
70206;BME280;57593;55.896;37.396;2023-02-25T01:28:36;97442.34;;;0.62;100.00
70206;BME280;57593;55.896;37.396;2023-02-25T01:29:12;97443.25;;;0.66;100.00
70206;BME280;57593;55.896;37.396;2023-02-25T01:29:43;97445.22;;;0.69;100.00
70206;BME280;57593;55.896;37.396;2023-02-25T01:30:14;97441.13;;;0.59;100.00
70206;BME280;57593;55.896;37.396;2023-02-25T01:30:46;97443.09;;;0.62;100.00
70206;BME280;57593;55.896;37.396;2023-02-25T01:31:18;97444.50;;;0.60;100.00
70206;BME280;57593;55.896;37.396;2023-02-25T01:31:54;97437.66;;;0.46;100.00
70206;BME280;57593;55.896;37.396;2023-02-25T01:32:26;97430.94;;;0.45;100.00
70206;BME280;57593;55.896;37.396;2023-02-25T01:32:59;97434.75;;;0.48;100.00
70206;BME280;57593;55.896;37.396;2023-02-25T01:33:30;97435.66;;;0.52;100.00
70206;BME280;57593;55.896;37.396;2023-02-25T01:34:02;97439.13;;;0.65;100.00
70206;BME280;57593;55.896;37.396;2023-02-25T01:34:33;97428.13;;;0.59;100.00
70206;BME280;57593;55.896;37.396;2023-02-25T01:35:07;97439.75;;;0.62;100.00
70206;BME280;57593;55.896;37.396;2023-02-25T01:35:37;97447.22;;;0.63;100.00
70206;BME280;57593;55.896;37.396;2023-02-25T01:36:08;97433.19;;;0.56;100.00
70206;BME280;57593;55.896;37.396;2023-02-25T01:36:39;97435.22;;;0.50;100.00
70206;BME280;57593;55.896;37.396;2023-02-25T01:37:10;97433.38;;;0.42;100.00
70206;BME280;57593;55.896;37.396;2023-02-25T01:37:42;97434.13;;;0.51;100.00
70206;BME280;57593;55.896;37.396;2023-02-25T01:38:16;97437.81;;;0.50;100.00
70206;BME280;57593;55.896;37.396;2023-02-25T01:38:48;97437.53;;;0.43;100.00
70206;BME280;57593;55.896;37.396;2023-02-25T01:39:20;97437.97;;;0.45;100.00
70206;BME280;57593;55.896;37.396;2023-02-25T01:39:51;97434.78;;;0.39;100.00
70206;BME280;57593;55.896;37.396;2023-02-25T01:40:22;97440.44;;;0.41;100.00
70206;BME280;57593;55.896;37.396;2023-02-25T01:40:57;97438.75;;;0.37;100.00
70206;BME280;57593;55.896;37.396;2023-02-25T01:41:29;97435.53;;;0.40;100.00
70206;BME280;57593;55.896;37.396;2023-02-25T01:42:02;97438.28;;;0.43;100.00
70206;BME280;57593;55.896;37.396;2023-02-25T01:42:35;97436.72;;;0.60;100.00
70206;BME280;57593;55.896;37.396;2023-02-25T01:43:13;97436.72;;;0.60;100.00
70206;BME280;57593;55.896;37.396;2023-02-25T01:44:07;97435.47;;;0.66;100.00
70206;BME280;57593;55.896;37.396;2023-02-25T01:45:49;97440.84;;;0.52;100.00
70206;BME280;57593;55.896;37.396;2023-02-25T01:46:20;97437.53;;;0.43;100.00
70206;BME280;57593;55.896;37.396;2023-02-25T01:46:52;97434.47;;;0.41;100.00
70206;BME280;57593;55.896;37.396;2023-02-25T01:47:23;97435.22;;;0.41;100.00
70206;BME280;57593;55.896;37.396;2023-02-25T01:47:58;97440.13;;;0.34;100.00
70206;BME280;57593;55.896;37.396;2023-02-25T01:48:34;97435.84;;;0.47;100.00
70206;BME280;57593;55.896;37.396;2023-02-25T01:49:27;97435.84;;;0.47;100.00
70206;BME280;57593;55.896;37.396;2023-02-25T01:50:01;97436.28;;;0.49;100.00
70206;BME280;57593;55.896;37.396;2023-02-25T01:50:40;97434.91;;;0.43;100.00
70206;BME280;57593;55.896;37.396;2023-02-25T01:51:11;97430.63;;;0.47;100.00
70206;BME280;57593;55.896;37.396;2023-02-25T01:51:47;97441.31;;;0.54;100.00
70206;BME280;57593;55.896;37.396;2023-02-25T01:52:22;97435.00;;;0.64;100.00
70206;BME280;57593;55.896;37.396;2023-02-25T01:52:56;97435.16;;;0.59;100.00
70206;BME280;57593;55.896;37.396;2023-02-25T01:53:37;97433.94;;;0.65;100.00
70206;BME280;57593;55.896;37.396;2023-02-25T01:54:10;97428.88;;;0.68;100.00
70206;BME280;57593;55.896;37.396;2023-02-25T01:54:44;97426.31;;;0.60;100.00
70206;BME280;57593;55.896;37.396;2023-02-25T01:55:19;97431.09;;;0.49;100.00
70206;BME280;57593;55.896;37.396;2023-02-25T01:55:50;97424.97;;;0.53;100.00
70206;BME280;57593;55.896;37.396;2023-02-25T01:56:22;97426.16;;;0.56;100.00
70206;BME280;57593;55.896;37.396;2023-02-25T01:56:57;97427.38;;;0.59;100.00
70206;BME280;57593;55.896;37.396;2023-02-25T01:57:28;97421.25;;;0.63;100.00
70206;BME280;57593;55.896;37.396;2023-02-25T01:57:59;97415.56;;;0.70;100.00
70206;BME280;57593;55.896;37.396;2023-02-25T01:58:31;97419.66;;;0.80;100.00
70206;BME280;57593;55.896;37.396;2023-02-25T01:59:03;97423.34;;;0.79;100.00
70206;BME280;57593;55.896;37.396;2023-02-25T01:59:34;97418.31;;;0.74;100.00
70206;BME280;57593;55.896;37.396;2023-02-25T02:00:07;97427.50;;;0.71;100.00
70206;BME280;57593;55.896;37.396;2023-02-25T02:00:47;97419.13;;;0.57;100.00
70206;BME280;57593;55.896;37.396;2023-02-25T02:01:21;97420.28;;;0.77;100.00
70206;BME280;57593;55.896;37.396;2023-02-25T02:01:52;97427.03;;;0.69;100.00
70206;BME280;57593;55.896;37.396;2023-02-25T02:02:24;97424.88;;;0.80;100.00
70206;BME280;57593;55.896;37.396;2023-02-25T02:02:57;97413.88;;;0.74;100.00
70206;BME280;57593;55.896;37.396;2023-02-25T02:03:31;97412.84;;;0.66;100.00
70206;BME280;57593;55.896;37.396;2023-02-25T02:04:09;97415.16;;;0.59;100.00
70206;BME280;57593;55.896;37.396;2023-02-25T02:04:42;97428.72;;;0.65;100.00
70206;BME280;57593;55.896;37.396;2023-02-25T02:05:14;97420.97;;;0.56;100.00
70206;BME280;57593;55.896;37.396;2023-02-25T02:06:00;97418.75;;;0.76;100.00
70206;BME280;57593;55.896;37.396;2023-02-25T02:06:35;97425.97;;;0.70;100.00
70206;BME280;57593;55.896;37.396;2023-02-25T02:07:07;97425.97;;;0.70;100.00
70206;BME280;57593;55.896;37.396;2023-02-25T02:07:37;97414.81;;;0.69;100.00
70206;BME280;57593;55.896;37.396;2023-02-25T02:08:08;97420.22;;;0.56;100.00
70206;BME280;57593;55.896;37.396;2023-02-25T02:08:40;97421.44;;;0.58;100.00
70206;BME280;57593;55.896;37.396;2023-02-25T02:09:17;97423.25;;;0.58;100.00
70206;BME280;57593;55.896;37.396;2023-02-25T02:09:49;97417.78;;;0.50;100.00
70206;BME280;57593;55.896;37.396;2023-02-25T02:10:25;97419.91;;;0.57;100.00
70206;BME280;57593;55.896;37.396;2023-02-25T02:10:57;97418.97;;;0.53;100.00
70206;BME280;57593;55.896;37.396;2023-02-25T02:11:28;97416.69;;;0.60;100.00
70206;BME280;57593;55.896;37.396;2023-02-25T02:12:03;97414.19;;;0.73;100.00
70206;BME280;57593;55.896;37.396;2023-02-25T02:12:41;97416.19;;;0.67;100.00
70206;BME280;57593;55.896;37.396;2023-02-25T02:13:13;97410.53;;;0.74;100.00
70206;BME280;57593;55.896;37.396;2023-02-25T02:13:47;97406.72;;;0.62;100.00
70206;BME280;57593;55.896;37.396;2023-02-25T02:14:25;97411.28;;;0.74;100.00
70206;BME280;57593;55.896;37.396;2023-02-25T02:15:00;97414.19;;;0.73;100.00
70206;BME280;57593;55.896;37.396;2023-02-25T02:15:37;97409.63;;;0.69;100.00
70206;BME280;57593;55.896;37.396;2023-02-25T02:17:12;97406.88;;;0.66;100.00
70206;BME280;57593;55.896;37.396;2023-02-25T02:18:27;97413.91;;;0.65;100.00
70206;BME280;57593;55.896;37.396;2023-02-25T02:19:42;97411.53;;;0.51;100.00
70206;BME280;57593;55.896;37.396;2023-02-25T02:20:23;97415.16;;;0.59;100.00
70206;BME280;57593;55.896;37.396;2023-02-25T02:22:24;97406.41;;;0.64;100.00
70206;BME280;57593;55.896;37.396;2023-02-25T02:26:35;97404.31;;;0.57;100.00
70206;BME280;57593;55.896;37.396;2023-02-25T02:30:04;97402.97;;;0.51;100.00
70206;BME280;57593;55.896;37.396;2023-02-25T02:32:02;97402.78;;;0.56;100.00
70206;BME280;57593;55.896;37.396;2023-02-25T02:33:03;97402.25;;;0.71;100.00
70206;BME280;57593;55.896;37.396;2023-02-25T02:36:02;97407.78;;;0.23;100.00
70206;BME280;57593;55.896;37.396;2023-02-25T02:38:51;97408.03;;;0.39;100.00
70206;BME280;57593;55.896;37.396;2023-02-25T02:41:47;97398.38;;;0.48;100.00
70206;BME280;57593;55.896;37.396;2023-02-25T02:44:51;97395.22;;;0.42;100.00
70206;BME280;57593;55.896;37.396;2023-02-25T02:46:22;97387.50;;;0.16;100.00
70206;BME280;57593;55.896;37.396;2023-02-25T02:47:12;97394.16;;;0.34;100.00
70206;BME280;57593;55.896;37.396;2023-02-25T02:47:52;97384.53;;;0.26;100.00
70206;BME280;57593;55.896;37.396;2023-02-25T02:49:42;97391.75;;;0.21;100.00
70206;BME280;57593;55.896;37.396;2023-02-25T02:50:27;97397.69;;;0.21;100.00
70206;BME280;57593;55.896;37.396;2023-02-25T02:51:01;97399.84;;;0.19;100.00
70206;BME280;57593;55.896;37.396;2023-02-25T02:51:45;97396.63;;;0.22;100.00
70206;BME280;57593;55.896;37.396;2023-02-25T02:52:22;97392.22;;;0.14;100.00
70206;BME280;57593;55.896;37.396;2023-02-25T02:52:55;97401.78;;;0.31;100.00
70206;BME280;57593;55.896;37.396;2023-02-25T02:53:28;97390.97;;;0.29;100.00
70206;BME280;57593;55.896;37.396;2023-02-25T02:54:03;97391.75;;;0.21;100.00
70206;BME280;57593;55.896;37.396;2023-02-25T02:54:37;97389.72;;;0.35;100.00
70206;BME280;57593;55.896;37.396;2023-02-25T02:55:15;97393.69;;;0.32;100.00
70206;BME280;57593;55.896;37.396;2023-02-25T02:55:55;97395.41;;;0.28;100.00
70206;BME280;57593;55.896;37.396;2023-02-25T02:56:28;97392.38;;;0.09;100.00
70206;BME280;57593;55.896;37.396;2023-02-25T02:57:03;97394.31;;;0.29;100.00
70206;BME280;57593;55.896;37.396;2023-02-25T02:57:39;97390.31;;;0.41;100.00
70206;BME280;57593;55.896;37.396;2023-02-25T02:58:21;97397.03;;;0.42;100.00
70206;BME280;57593;55.896;37.396;2023-02-25T02:58:58;97391.06;;;0.41;100.00
70206;BME280;57593;55.896;37.396;2023-02-25T02:59:38;97381.94;;;0.35;100.00
70206;BME280;57593;55.896;37.396;2023-02-25T03:00:14;97383.00;;;0.34;100.00
70206;BME280;57593;55.896;37.396;2023-02-25T03:00:58;97393.06;;;0.35;100.00
70206;BME280;57593;55.896;37.396;2023-02-25T03:01:34;97392.00;;;0.37;100.00
70206;BME280;57593;55.896;37.396;2023-02-25T03:02:10;97402.72;;;0.26;100.00
70206;BME280;57593;55.896;37.396;2023-02-25T03:02:51;97384.41;;;0.14;100.00
70206;BME280;57593;55.896;37.396;2023-02-25T03:03:29;97387.19;;;0.09;100.00
70206;BME280;57593;55.896;37.396;2023-02-25T03:04:13;97382.91;;;0.13;100.00
70206;BME280;57593;55.896;37.396;2023-02-25T03:04:47;97385.94;;;0.24;100.00
70206;BME280;57593;55.896;37.396;2023-02-25T03:05:20;97386.72;;;0.15;100.00
70206;BME280;57593;55.896;37.396;2023-02-25T03:05:55;97384.84;;;0.25;100.00
70206;BME280;57593;55.896;37.396;2023-02-25T03:06:31;97388.84;;;0.22;100.00
70206;BME280;57593;55.896;37.396;2023-02-25T03:07:08;97392.34;;;0.26;100.00
70206;BME280;57593;55.896;37.396;2023-02-25T03:07:43;97393.69;;;0.32;100.00
70206;BME280;57593;55.896;37.396;2023-02-25T03:08:21;97379.34;;;0.35;100.00
70206;BME280;57593;55.896;37.396;2023-02-25T03:09:09;97377.47;;;0.44;100.00
70206;BME280;57593;55.896;37.396;2023-02-25T03:09:46;97382.22;;;0.42;100.00
70206;BME280;57593;55.896;37.396;2023-02-25T03:10:20;97379.31;;;0.44;100.00
70206;BME280;57593;55.896;37.396;2023-02-25T03:10:52;97380.81;;;0.45;100.00
70206;BME280;57593;55.896;37.396;2023-02-25T03:11:25;97383.88;;;0.47;100.00
70206;BME280;57593;55.896;37.396;2023-02-25T03:11:56;97386.78;;;0.45;100.00
70206;BME280;57593;55.896;37.396;2023-02-25T03:12:27;97384.53;;;0.35;100.00
70206;BME280;57593;55.896;37.396;2023-02-25T03:12:59;97376.84;;;0.47;100.00
70206;BME280;57593;55.896;37.396;2023-02-25T03:13:31;97380.94;;;0.57;100.00
70206;BME280;57593;55.896;37.396;2023-02-25T03:14:02;97379.41;;;0.56;100.00
70206;BME280;57593;55.896;37.396;2023-02-25T03:14:36;97390.25;;;0.58;100.00
70206;BME280;57593;55.896;37.396;2023-02-25T03:15:07;97380.00;;;0.62;100.00
70206;BME280;57593;55.896;37.396;2023-02-25T03:15:39;97382.59;;;0.62;100.00
70206;BME280;57593;55.896;37.396;2023-02-25T03:16:16;97378.78;;;0.59;100.00
70206;BME280;57593;55.896;37.396;2023-02-25T03:16:53;97377.72;;;0.60;100.00
70206;BME280;57593;55.896;37.396;2023-02-25T03:17:32;97383.53;;;0.57;100.00
70206;BME280;57593;55.896;37.396;2023-02-25T03:18:21;97381.69;;;0.58;100.00
70206;BME280;57593;55.896;37.396;2023-02-25T03:19:02;97376.34;;;0.63;100.00